Time;durP1;ratioP1;P1;durP2;ratioP2;P2;SDS_P1;SDS_P2;PMS_P1;PMS_P2;Temp;Humidity;BMP_temperature;BMP_pressure;BME280_temperature;BME280_humidity;BME280_pressure;Samples;Min_cycle;Max_cycle;Signal;HPM_P1;HPM_P2
2021/11/04 00:02:24;;;;;;;26.00;17.92;;;;;;;-146.90;100.00;60518.97;5049328;28;20044;-77
2021/11/04 00:04:50;;;;;;;30.65;18.30;;;;;;;-146.90;100.00;60518.97;5049947;28;20386;-77
2021/11/04 00:07:17;;;;;;;31.88;20.45;;;;;;;-146.90;100.00;60518.97;5049243;28;20029;-77
2021/11/04 00:09:42;;;;;;;27.85;18.52;;;;;;;-146.90;100.00;60518.97;5049922;28;20444;-77
2021/11/04 00:12:08;;;;;;;26.58;17.10;;;;;;;-146.90;100.00;60518.97;5048875;28;20025;-77
2021/11/04 00:14:33;;;;;;;35.72;20.58;;;;;;;-146.90;100.00;60518.97;5043625;28;20056;-77
2021/11/04 00:16:58;;;;;;;34.28;20.13;;;;;;;-146.90;100.00;60518.97;5030589;28;20037;-77
2021/11/04 00:19:24;;;;;;;28.13;18.42;;;;;;;-146.90;100.00;60518.97;5031157;28;20083;-77
2021/11/04 00:21:50;;;;;;;24.80;17.38;;;;;;;-146.90;100.00;60518.97;5029420;28;20041;-77
2021/11/04 00:24:16;;;;;;;32.47;20.08;;;;;;;-146.90;100.00;60518.97;5029837;28;20036;-77
2021/11/04 00:26:41;;;;;;;32.47;20.52;;;;;;;-146.90;100.00;60518.97;5030469;28;20458;-77
2021/11/04 00:29:07;;;;;;;27.42;19.48;;;;;;;-146.90;100.00;60518.97;5029974;28;21626;-77
2021/11/04 00:31:32;;;;;;;27.33;19.02;;;;;;;-146.90;100.00;60518.97;5050028;28;20067;-77
2021/11/04 00:33:57;;;;;;;27.90;18.95;;;;;;;-146.90;100.00;60518.97;5047065;28;20009;-76
2021/11/04 00:36:23;;;;;;;29.40;19.52;;;;;;;-146.90;100.00;60518.97;5050948;28;20071;-76
2021/11/04 00:38:48;;;;;;;34.45;22.08;;;;;;;-146.90;100.00;60518.97;5048496;28;20412;-76
2021/11/04 00:41:15;;;;;;;31.60;20.35;;;;;;;-146.90;100.00;60518.97;5050833;28;20268;-76
2021/11/04 00:43:40;;;;;;;31.77;19.75;;;;;;;-146.90;100.00;60518.97;5050730;28;20661;-77
2021/11/04 00:46:05;;;;;;;26.73;18.52;;;;;;;-146.90;100.00;60518.97;5050182;28;20071;-77
2021/11/04 00:48:31;;;;;;;26.58;18.55;;;;;;;-146.90;100.00;60518.97;5049117;28;20024;-77
2021/11/04 00:50:56;;;;;;;26.25;17.48;;;;;;;-146.90;100.00;60518.97;5047705;28;20029;-77
2021/11/04 00:53:22;;;;;;;25.00;18.15;;;;;;;-146.90;100.00;60518.97;5049189;28;20024;-76
2021/11/04 00:55:49;;;;;;;24.38;16.40;;;;;;;-146.90;100.00;60518.97;5048859;28;20032;-77
2021/11/04 00:58:14;;;;;;;28.90;19.58;;;;;;;-146.90;100.00;60518.97;5047732;28;20036;-77
2021/11/04 01:00:40;;;;;;;33.22;20.67;;;;;;;-146.90;100.00;60518.97;5050400;28;20028;-77
2021/11/04 01:03:06;;;;;;;26.73;18.48;;;;;;;-146.90;100.00;60518.97;5048692;28;20017;-76
2021/11/04 01:05:31;;;;;;;28.08;17.98;;;;;;;-146.90;100.00;60518.97;5050445;28;20428;-77
2021/11/04 01:07:57;;;;;;;30.15;18.65;;;;;;;-146.90;100.00;60518.97;5046171;28;20393;-77
2021/11/04 01:10:22;;;;;;;28.67;18.73;;;;;;;-146.90;100.00;60518.97;5049954;28;20083;-76
2021/11/04 01:12:51;;;;;;;28.73;17.63;;;;;;;-146.90;100.00;60518.97;5049814;28;20053;-76
2021/11/04 01:15:16;;;;;;;24.35;17.17;;;;;;;-146.90;100.00;60518.97;5050318;28;20441;-77
2021/11/04 01:17:41;;;;;;;27.55;17.98;;;;;;;-146.90;100.00;60518.97;5049644;28;20083;-77
2021/11/04 01:20:07;;;;;;;27.45;18.30;;;;;;;-146.90;100.00;60518.97;5038105;28;20394;-77
2021/11/04 01:22:33;;;;;;;27.38;18.05;;;;;;;-146.90;100.00;60518.97;5029830;28;20022;-76
2021/11/04 01:24:58;;;;;;;29.63;18.95;;;;;;;-146.90;100.00;60518.97;5030039;28;20574;-76
2021/11/04 01:27:23;;;;;;;24.30;16.98;;;;;;;-146.90;100.00;60518.97;5032662;28;20354;-78
2021/11/04 01:29:49;;;;;;;27.17;17.50;;;;;;;-146.90;100.00;60518.97;5048543;28;20021;-76
2021/11/04 01:32:15;;;;;;;26.65;16.90;;;;;;;-146.90;100.00;60518.97;5049909;28;20040;-76
2021/11/04 01:34:41;;;;;;;27.40;17.77;;;;;;;-146.90;100.00;60518.97;5045559;28;20021;-76
2021/11/04 01:37:06;;;;;;;24.17;16.92;;;;;;;-146.90;100.00;60518.97;5048553;28;20543;-76
2021/11/04 01:39:31;;;;;;;25.13;16.48;;;;;;;-146.90;100.00;60518.97;5049259;28;20021;-76
2021/11/04 01:41:57;;;;;;;25.00;16.63;;;;;;;-146.90;100.00;60518.97;5047598;28;20470;-77
2021/11/04 01:44:22;;;;;;;24.60;17.70;;;;;;;-146.90;100.00;60518.97;5049756;28;20033;-78
2021/11/04 01:46:49;;;;;;;24.55;17.23;;;;;;;-146.90;100.00;60518.97;5049035;28;20394;-77
2021/11/04 01:49:16;;;;;;;25.73;17.42;;;;;;;-146.90;100.00;60518.97;5047362;28;20521;-77
2021/11/04 01:51:43;;;;;;;23.90;16.58;;;;;;;-146.90;100.00;60518.97;5049211;28;20040;-77
2021/11/04 01:54:08;;;;;;;27.95;18.08;;;;;;;-146.90;100.00;60518.97;5045905;28;20032;-77
2021/11/04 01:56:38;;;;;;;25.38;18.52;;;;;;;-146.90;100.00;60518.97;5049567;28;20029;-76
2021/11/04 01:59:04;;;;;;;28.55;17.63;;;;;;;-146.90;100.00;60518.97;5047374;28;20017;-76
2021/11/04 02:01:29;;;;;;;24.70;17.00;;;;;;;-146.90;100.00;60518.97;5049232;28;20029;-76
2021/11/04 02:04:02;;;;;;;26.55;16.13;;;;;;;-146.90;100.00;60518.97;5048611;28;20028;-76
2021/11/04 02:06:37;;;;;;;26.27;16.15;;;;;;;-146.90;100.00;60518.97;5047788;28;20029;-77
2021/11/04 02:09:06;;;;;;;25.33;16.70;;;;;;;-146.90;100.00;60518.97;5045754;28;20067;-77
2021/11/04 02:11:50;;;;;;;22.55;15.43;;;;;;;-146.90;100.00;60518.97;5048995;28;20025;-77
2021/11/04 02:14:18;;;;;;;22.30;16.40;;;;;;;-146.90;100.00;60518.97;5048198;28;20482;-77
2021/11/04 02:16:44;;;;;;;23.45;15.18;;;;;;;-146.90;100.00;60518.97;5047656;28;20033;-77
2021/11/04 02:19:30;;;;;;;22.02;14.98;;;;;;;-146.90;100.00;60518.97;5047453;28;20495;-77
2021/11/04 02:22:00;;;;;;;19.40;14.48;;;;;;;-146.90;100.00;60518.97;5045638;28;20126;-77
2021/11/04 02:24:44;;;;;;;18.23;13.70;;;;;;;-146.90;100.00;60518.97;5048350;28;20470;-78
2021/11/04 02:27:10;;;;;;;19.10;14.43;;;;;;;-146.90;100.00;60518.97;5047531;28;20033;-78
2021/11/04 02:29:38;;;;;;;25.10;13.98;;;;;;;-146.90;100.00;60518.97;5049503;28;20112;-76
2021/11/04 02:32:06;;;;;;;20.70;14.45;;;;;;;-146.90;100.00;60518.97;5040868;28;20474;-77
2021/11/04 02:34:31;;;;;;;19.85;13.57;;;;;;;-146.90;100.00;60518.97;5028229;28;20037;-77
2021/11/04 02:36:57;;;;;;;18.98;14.77;;;;;;;-146.90;100.00;60518.97;5026730;28;20021;-77
2021/11/04 02:39:25;;;;;;;17.77;13.13;;;;;;;-146.90;100.00;60518.97;5027839;28;20021;-78
2021/11/04 02:41:51;;;;;;;19.35;13.45;;;;;;;-146.90;100.00;60518.97;5028220;28;20033;-77
2021/11/04 02:44:16;;;;;;;21.75;14.27;;;;;;;-146.90;100.00;60518.97;5027864;28;20675;-77
2021/11/04 02:46:42;;;;;;;19.63;13.82;;;;;;;-146.90;100.00;60518.97;5030525;28;20025;-76
2021/11/04 02:49:08;;;;;;;20.40;13.93;;;;;;;-146.90;100.00;60518.97;5046566;28;20478;-77
2021/11/04 02:51:36;;;;;;;19.35;13.40;;;;;;;-146.90;100.00;60518.97;5047481;28;20033;-77
2021/11/04 02:54:03;;;;;;;17.15;13.50;;;;;;;-146.90;100.00;60518.97;5046572;28;20141;-76
2021/11/04 02:56:58;;;;;;;19.38;13.68;;;;;;;-146.90;100.00;60518.97;5052736;28;20077;-76
2021/11/04 02:59:26;;;;;;;16.20;12.68;;;;;;;-146.90;100.00;60518.97;5047523;28;20067;-76
2021/11/04 03:01:55;;;;;;;18.20;13.77;;;;;;;-146.90;100.00;60518.97;5048967;28;20021;-76
2021/11/04 03:04:21;;;;;;;20.40;13.98;;;;;;;-146.90;100.00;60518.97;5049017;28;20017;-76
2021/11/04 03:06:47;;;;;;;19.38;14.98;;;;;;;-146.90;100.00;60518.97;5052648;28;20029;-76
2021/11/04 03:09:14;;;;;;;23.20;15.23;;;;;;;-146.90;100.00;60518.97;5052359;28;20052;-76
2021/11/04 03:11:40;;;;;;;21.80;15.65;;;;;;;-146.90;100.00;60518.97;5052550;28;20431;-76
2021/11/04 03:14:05;;;;;;;19.52;14.00;;;;;;;-146.90;100.00;60518.97;5051926;28;20052;-76
2021/11/04 03:16:36;;;;;;;20.63;15.18;;;;;;;-146.90;100.00;60518.97;5050429;28;20079;-77
2021/11/04 03:19:02;;;;;;;19.48;13.77;;;;;;;-146.90;100.00;60518.97;5051570;28;20060;-77
2021/11/04 03:21:32;;;;;;;20.27;14.65;;;;;;;-146.90;100.00;60518.97;5047295;28;20087;-77
2021/11/04 03:23:58;;;;;;;21.98;14.10;;;;;;;-146.90;100.00;60518.97;5028863;28;20033;-78
2021/11/04 03:26:26;;;;;;;20.08;14.35;;;;;;;-146.90;100.00;60518.97;5030919;28;20108;-78
2021/11/04 03:28:53;;;;;;;21.63;15.65;;;;;;;-146.90;100.00;60518.97;5039508;28;20021;-78
2021/11/04 03:31:19;;;;;;;21.10;14.73;;;;;;;-146.90;100.00;60518.97;5044341;28;20116;-78
2021/11/04 03:33:45;;;;;;;19.65;14.25;;;;;;;-146.90;100.00;60518.97;5030483;28;20071;-77
2021/11/04 03:36:12;;;;;;;21.55;14.77;;;;;;;-146.90;100.00;60518.97;5031588;28;20031;-77
2021/11/04 03:38:38;;;;;;;21.75;14.20;;;;;;;-146.90;100.00;60518.97;5042336;28;20036;-77
2021/11/04 03:41:03;;;;;;;22.90;15.43;;;;;;;-146.90;100.00;60518.97;5050352;28;20040;-77
2021/11/04 03:43:29;;;;;;;19.52;14.63;;;;;;;-146.90;100.00;60518.97;5052264;28;20488;-77
2021/11/04 03:45:54;;;;;;;19.52;13.93;;;;;;;-146.90;100.00;60518.97;5051665;28;20027;-77
2021/11/04 03:48:21;;;;;;;21.23;15.98;;;;;;;-146.90;100.00;60518.97;5030408;28;20041;-77
2021/11/04 03:50:46;;;;;;;24.13;15.13;;;;;;;-146.90;100.00;60518.97;5014383;28;20035;-76
2021/11/04 03:53:11;;;;;;;25.85;15.52;;;;;;;-146.90;100.00;60518.97;5030198;28;20048;-77
2021/11/04 03:55:37;;;;;;;20.67;15.10;;;;;;;-146.90;100.00;60518.97;5029956;28;20508;-77
2021/11/04 03:58:03;;;;;;;22.48;14.65;;;;;;;-146.90;100.00;60518.97;5031081;28;20037;-78
2021/11/04 04:00:29;;;;;;;20.17;14.95;;;;;;;-146.90;100.00;60518.97;5030146;28;20036;-77
2021/11/04 04:02:54;;;;;;;23.52;14.70;;;;;;;-146.90;100.00;60518.97;5031086;28;20025;-76
2021/11/04 04:05:32;;;;;;;20.02;13.15;;;;;;;-146.90;100.00;60518.97;5029924;28;20474;-78
2021/11/04 04:07:58;;;;;;;17.60;13.32;;;;;;;-146.90;100.00;60518.97;5029537;28;20163;-77
2021/11/04 04:10:25;;;;;;;19.08;13.25;;;;;;;-146.90;100.00;60518.97;5031680;28;20112;-77
2021/11/04 04:12:51;;;;;;;20.42;12.88;;;;;;;-146.90;100.00;60518.97;5031076;28;20029;-77
2021/11/04 04:15:17;;;;;;;21.38;13.68;;;;;;;-146.90;100.00;60518.97;5031509;28;20029;-77
2021/11/04 04:17:42;;;;;;;21.63;13.32;;;;;;;-146.90;100.00;60518.97;5030827;28;20390;-77
2021/11/04 04:20:08;;;;;;;18.27;13.43;;;;;;;-146.90;100.00;60518.97;5029849;28;20029;-77
2021/11/04 04:22:34;;;;;;;17.63;13.07;;;;;;;-146.90;100.00;60518.97;5029341;28;20164;-77
2021/11/04 04:24:59;;;;;;;17.30;12.25;;;;;;;-146.90;100.00;60518.97;5028841;28;20076;-77
2021/11/04 04:27:25;;;;;;;17.92;12.10;;;;;;;-146.90;100.00;60518.97;5031189;28;20536;-77
2021/11/04 04:29:50;;;;;;;15.57;11.50;;;;;;;-146.90;100.00;60518.97;5030809;28;20103;-76
2021/11/04 04:32:15;;;;;;;16.08;10.98;;;;;;;-146.90;100.00;60518.97;5029439;28;20496;-77
2021/11/04 04:34:42;;;;;;;20.52;11.98;;;;;;;-146.90;100.00;60518.97;5040660;28;20025;-77
2021/11/04 04:37:07;;;;;;;16.77;11.75;;;;;;;-146.90;100.00;60518.97;5047904;28;20506;-76
2021/11/04 04:39:33;;;;;;;16.05;11.70;;;;;;;-146.90;100.00;60518.97;5051139;28;20041;-76
2021/11/04 04:42:00;;;;;;;22.38;13.82;;;;;;;-146.90;100.00;60518.97;5047381;28;20029;-77
2021/11/04 04:44:25;;;;;;;17.83;12.90;;;;;;;-146.90;100.00;60518.97;5050848;28;20024;-77
2021/11/04 04:46:50;;;;;;;21.17;14.02;;;;;;;-146.90;100.00;60518.97;5048399;28;20048;-77
2021/11/04 04:49:16;;;;;;;20.63;13.65;;;;;;;-146.90;100.00;60518.97;5050699;28;20169;-77
2021/11/04 04:51:42;;;;;;;22.25;13.80;;;;;;;-146.90;100.00;60518.97;5050385;28;20383;-77
2021/11/04 04:54:08;;;;;;;20.08;14.00;;;;;;;-146.90;100.00;60518.97;5050263;28;20025;-78
2021/11/04 04:56:33;;;;;;;24.25;13.98;;;;;;;-146.90;100.00;60518.97;5048382;28;20543;-77
2021/11/04 04:59:00;;;;;;;19.33;13.68;;;;;;;-146.90;100.00;60518.97;5048512;28;20021;-77
2021/11/04 05:01:25;;;;;;;17.23;12.77;;;;;;;-146.90;100.00;60518.97;5050256;28;20021;-77
2021/11/04 05:03:51;;;;;;;21.13;13.95;;;;;;;-146.90;100.00;60518.97;5050082;28;20391;-76
2021/11/04 05:06:16;;;;;;;17.45;12.48;;;;;;;-146.90;100.00;60518.97;5050340;28;20112;-77
2021/11/04 05:08:42;;;;;;;18.45;12.35;;;;;;;-146.90;100.00;60518.97;5049870;28;20095;-77
2021/11/04 05:11:07;;;;;;;21.35;13.30;;;;;;;-146.90;100.00;60518.97;5049454;28;20083;-77
2021/11/04 05:13:33;;;;;;;18.05;12.32;;;;;;;-146.90;100.00;60518.97;5032768;28;20037;-77
2021/11/04 05:15:59;;;;;;;18.75;12.73;;;;;;;-146.90;100.00;60518.97;5041158;28;20040;-78
2021/11/04 05:18:24;;;;;;;18.90;13.40;;;;;;;-146.90;100.00;60518.97;5047783;28;20059;-77
2021/11/04 05:20:50;;;;;;;21.52;12.85;;;;;;;-146.90;100.00;60518.97;5029978;28;20030;-77
2021/11/04 05:23:15;;;;;;;18.13;11.85;;;;;;;-146.90;100.00;60518.97;5030036;28;20068;-77
2021/11/04 05:25:40;;;;;;;17.48;12.38;;;;;;;-146.90;100.00;60518.97;5030155;28;20021;-77
2021/11/04 05:28:07;;;;;;;17.20;11.93;;;;;;;-146.90;100.00;60518.97;5029076;28;20033;-77
2021/11/04 05:30:32;;;;;;;16.52;10.15;;;;;;;-146.90;100.00;60518.97;5029807;28;20042;-77
2021/11/04 05:32:58;;;;;;;15.73;9.68;;;;;;;-146.90;100.00;60518.97;5029705;28;20045;-77
2021/11/04 05:35:23;;;;;;;13.70;8.00;;;;;;;-146.90;100.00;60518.97;5029056;28;20030;-77
2021/11/04 05:37:49;;;;;;;13.38;8.20;;;;;;;-146.90;100.00;60518.97;5045988;28;20079;-76
2021/11/04 05:40:14;;;;;;;11.93;7.38;;;;;;;-146.90;100.00;60518.97;5049942;28;20040;-76
2021/11/04 05:42:40;;;;;;;16.00;7.13;;;;;;;-146.90;100.00;60518.97;5050062;28;20051;-75
2021/11/04 05:45:06;;;;;;;9.38;5.53;;;;;;;-146.90;100.00;60518.97;5049189;28;20032;-76
2021/11/04 05:47:31;;;;;;;10.32;4.40;;;;;;;-146.90;100.00;60518.97;5047599;28;20033;-76
2021/11/04 05:49:57;;;;;;;10.60;4.85;;;;;;;-146.90;100.00;60518.97;5031005;28;20033;-76
2021/11/04 05:52:22;;;;;;;9.07;4.35;;;;;;;-146.90;100.00;60518.97;5029792;28;20128;-77
2021/11/04 05:54:48;;;;;;;11.68;4.75;;;;;;;-146.90;100.00;60518.97;5028794;28;20030;-76
2021/11/04 05:57:13;;;;;;;6.07;3.95;;;;;;;-146.90;100.00;60518.97;5028860;28;20411;-78
2021/11/04 05:59:38;;;;;;;12.60;4.55;;;;;;;-146.90;100.00;60518.97;5029302;28;20551;-75
2021/11/04 06:02:04;;;;;;;7.32;4.20;;;;;;;-146.90;100.00;60518.97;5025879;28;20179;-76
2021/11/04 06:04:34;;;;;;;9.38;4.15;;;;;;;-146.90;100.00;60518.97;5029445;28;20247;-76
2021/11/04 06:07:00;;;;;;;8.52;3.63;;;;;;;-146.90;100.00;60518.97;5038739;28;20080;-77
2021/11/04 06:09:25;;;;;;;7.45;3.75;;;;;;;-146.90;100.00;60518.97;5047574;28;20486;-77
2021/11/04 06:11:51;;;;;;;8.38;4.03;;;;;;;-146.90;100.00;60518.97;5048337;28;20028;-76
2021/11/04 06:14:16;;;;;;;8.02;3.92;;;;;;;-146.90;100.00;60518.97;5035672;28;20025;-76
2021/11/04 06:16:42;;;;;;;9.43;3.80;;;;;;;-146.90;100.00;60518.97;5032345;28;20078;-76
2021/11/04 06:19:07;;;;;;;8.55;4.00;;;;;;;-146.90;100.00;60518.97;5047895;28;20077;-75
2021/11/04 06:21:32;;;;;;;6.30;3.83;;;;;;;-146.90;100.00;60518.97;5042163;28;20022;-76
2021/11/04 06:23:58;;;;;;;9.65;4.47;;;;;;;-146.90;100.00;60518.97;5043381;28;20060;-77
2021/11/04 06:26:23;;;;;;;6.28;3.72;;;;;;;-146.90;100.00;60518.97;5027266;28;20096;-76
2021/11/04 06:28:48;;;;;;;6.72;4.13;;;;;;;-146.90;100.00;60518.97;5026958;28;20036;-77
2021/11/04 06:31:14;;;;;;;11.05;4.30;;;;;;;-146.90;100.00;60518.97;5042137;28;20029;-76
2021/11/04 06:33:39;;;;;;;7.88;4.00;;;;;;;-146.90;100.00;60518.97;5030658;28;20029;-76
2021/11/04 06:36:04;;;;;;;6.90;3.83;;;;;;;-146.90;100.00;60518.97;5032651;28;20025;-78
2021/11/04 06:38:32;;;;;;;9.20;4.43;;;;;;;-146.90;100.00;60518.97;5047888;28;20150;-78
2021/11/04 06:40:57;;;;;;;7.55;4.22;;;;;;;-146.90;100.00;60518.97;5045456;28;20293;-76
2021/11/04 06:43:23;;;;;;;7.57;4.07;;;;;;;-146.90;100.00;60518.97;5048238;28;20108;-77
2021/11/04 06:45:50;;;;;;;7.93;4.50;;;;;;;-146.90;100.00;60518.97;5047597;28;20021;-76
2021/11/04 06:48:22;;;;;;;9.63;3.97;;;;;;;-146.90;100.00;60518.97;5046416;28;20047;-76
2021/11/04 06:50:49;;;;;;;11.52;4.20;;;;;;;-146.90;100.00;60518.97;5046461;28;20458;-76
2021/11/04 06:53:15;;;;;;;11.75;4.97;;;;;;;-146.90;100.00;60518.97;5030180;28;20117;-77
2021/11/04 06:55:43;;;;;;;8.13;3.72;;;;;;;-146.90;100.00;60518.97;5037934;28;20075;-78
2021/11/04 06:58:14;;;;;;;6.82;3.33;;;;;;;-146.90;100.00;60518.97;5036654;28;20037;-77
2021/11/04 07:00:43;;;;;;;4.95;2.88;;;;;;;-146.90;100.00;60518.97;5046609;28;20021;-77
2021/11/04 07:03:29;;;;;;;7.40;3.25;;;;;;;-146.90;100.00;60518.97;5046611;28;20024;-78
2021/11/04 07:06:09;;;;;;;8.45;3.10;;;;;;;-146.90;100.00;60518.97;5044918;28;20029;-75
2021/11/04 07:08:56;;;;;;;7.90;2.65;;;;;;;-146.90;100.00;60518.97;5046745;28;20096;-77
2021/11/04 07:11:23;;;;;;;4.28;2.55;;;;;;;-146.90;100.00;60518.97;5031267;28;20037;-77
2021/11/04 07:13:50;;;;;;;5.50;2.75;;;;;;;-146.90;100.00;60518.97;5010032;28;20056;-79
2021/11/04 07:16:16;;;;;;;6.00;2.42;;;;;;;-146.90;100.00;60518.97;5009383;28;20508;-78
2021/11/04 07:18:41;;;;;;;8.02;2.70;;;;;;;-146.90;100.00;60518.97;5030861;28;20125;-79
2021/11/04 07:21:35;;;;;;;5.13;2.17;;;;;;;-146.90;100.00;60518.97;5035487;28;20030;-78
2021/11/04 07:24:08;;;;;;;7.32;2.25;;;;;;;-146.90;100.00;60518.97;5022769;28;20425;-78
2021/11/04 07:26:37;;;;;;;8.15;2.00;;;;;;;-146.90;100.00;60518.97;5007551;28;20018;-78
2021/11/04 07:29:04;;;;;;;5.78;2.03;;;;;;;-146.90;100.00;60518.97;5041820;28;20364;-78
2021/11/04 07:31:35;;;;;;;5.20;1.77;;;;;;;-146.90;100.00;60518.97;5024478;28;20056;-79
2021/11/04 07:34:03;;;;;;;6.07;1.85;;;;;;;-146.90;100.00;60518.97;5024767;28;20446;-78
2021/11/04 07:36:32;;;;;;;4.93;2.17;;;;;;;-146.90;100.00;60518.97;5035055;28;20386;-80
2021/11/04 07:38:57;;;;;;;3.03;1.67;;;;;;;-146.90;100.00;60518.97;5044583;28;20021;-78
2021/11/04 07:41:23;;;;;;;5.10;1.98;;;;;;;-146.90;100.00;60518.97;5040005;28;20497;-77
2021/11/04 07:43:49;;;;;;;7.50;2.17;;;;;;;-146.90;100.00;60518.97;5027682;28;20026;-78
2021/11/04 07:46:15;;;;;;;4.75;2.17;;;;;;;-146.90;100.00;60518.97;5031519;28;20102;-77
2021/11/04 07:48:42;;;;;;;3.30;1.73;;;;;;;-146.90;100.00;60518.97;5028194;28;20109;-77
2021/11/04 07:51:07;;;;;;;5.68;2.22;;;;;;;-146.90;100.00;60518.97;5009633;28;20034;-76
2021/11/04 07:53:33;;;;;;;6.93;2.30;;;;;;;-146.90;100.00;60518.97;5013946;28;20026;-77
2021/11/04 07:55:58;;;;;;;5.20;2.03;;;;;;;-146.90;100.00;60518.97;5022371;28;20072;-77
2021/11/04 07:58:23;;;;;;;4.85;2.00;;;;;;;-146.90;100.00;60518.97;5020041;28;20030;-76
2021/11/04 08:00:49;;;;;;;5.28;2.55;;;;;;;-146.90;100.00;60518.97;5010933;28;20053;-82
2021/11/04 08:03:14;;;;;;;5.10;2.00;;;;;;;-146.90;100.00;60518.97;5024431;28;20097;-77
2021/11/04 08:05:39;;;;;;;13.77;3.97;;;;;;;-146.90;100.00;60518.97;5029921;28;20112;-78
2021/11/04 08:08:05;;;;;;;12.15;3.70;;;;;;;-146.90;100.00;60518.97;5029879;28;20057;-75
2021/11/04 08:10:31;;;;;;;7.70;2.53;;;;;;;-146.90;100.00;60518.97;5029714;28;20196;-76
2021/11/04 08:13:02;;;;;;;7.90;2.33;;;;;;;-146.90;100.00;60518.97;5029741;28;20026;-76
2021/11/04 08:15:28;;;;;;;11.48;2.38;;;;;;;-146.90;100.00;60518.97;5031054;28;20095;-76
2021/11/04 08:17:53;;;;;;;14.13;2.50;;;;;;;-146.90;100.00;60518.97;5030365;28;20480;-81
2021/11/04 08:20:18;;;;;;;9.90;3.22;;;;;;;-146.90;100.00;60518.97;5030580;28;20433;-79
2021/11/04 08:22:44;;;;;;;9.05;2.75;;;;;;;-146.90;100.00;60518.97;5030919;28;20359;-77
2021/11/04 08:25:09;;;;;;;9.07;2.70;;;;;;;-146.90;100.00;60518.97;5030411;28;20044;-79
2021/11/04 08:27:35;;;;;;;7.70;2.40;;;;;;;-146.90;100.00;60518.97;5029027;28;20071;-78
2021/11/04 08:30:00;;;;;;;8.80;2.95;;;;;;;-146.90;100.00;60518.97;5030034;28;20067;-80
2021/11/04 08:32:26;;;;;;;9.30;2.22;;;;;;;-146.90;100.00;60518.97;5031306;28;20025;-80
2021/11/04 08:34:51;;;;;;;11.18;2.50;;;;;;;-146.90;100.00;60518.97;5030471;28;20025;-77
2021/11/04 08:37:17;;;;;;;10.18;2.83;;;;;;;-146.90;100.00;60518.97;5030054;28;20038;-77
2021/11/04 08:39:42;;;;;;;8.55;3.00;;;;;;;-146.90;100.00;60518.97;5030461;28;20025;-77
2021/11/04 08:42:08;;;;;;;3.60;1.77;;;;;;;-146.90;100.00;60518.97;5029749;28;20036;-77
2021/11/04 08:44:34;;;;;;;6.75;2.08;;;;;;;-146.90;100.00;60518.97;5030330;28;20414;-77
2021/11/04 08:47:00;;;;;;;10.10;2.13;;;;;;;-146.90;100.00;60518.97;5029593;28;20082;-77
2021/11/04 08:49:25;;;;;;;11.00;2.30;;;;;;;-146.90;100.00;60518.97;5026813;28;20033;-79
2021/11/04 08:51:54;;;;;;;5.55;1.90;;;;;;;-146.90;100.00;60518.97;5028050;28;20053;-77
2021/11/04 08:54:21;;;;;;;9.63;1.95;;;;;;;-146.90;100.00;60518.97;5024512;28;20040;-76
2021/11/04 08:56:47;;;;;;;9.00;1.67;;;;;;;-146.90;100.00;60518.97;5025168;28;20037;-78
2021/11/04 08:59:12;;;;;;;2.75;1.35;;;;;;;-146.90;100.00;60518.97;5040291;28;20040;-79
2021/11/04 09:01:38;;;;;;;8.73;2.22;;;;;;;-146.90;100.00;60518.97;5030254;28;20424;-78
2021/11/04 09:04:03;;;;;;;6.35;1.60;;;;;;;-146.90;100.00;60518.97;5027894;28;20585;-84
2021/11/04 09:06:29;;;;;;;2.17;1.38;;;;;;;-146.90;100.00;60518.97;5026851;28;20122;-84
2021/11/04 09:08:54;;;;;;;3.88;1.40;;;;;;;-146.90;100.00;60518.97;5028213;28;20061;-85
2021/11/04 09:11:20;;;;;;;5.22;1.10;;;;;;;-146.90;100.00;60518.97;5029051;28;20476;-86
2021/11/04 09:13:45;;;;;;;3.33;1.15;;;;;;;-146.90;100.00;60518.97;5030865;28;20040;-88
2021/11/04 09:16:10;;;;;;;3.00;0.80;;;;;;;-146.90;100.00;60518.97;5045425;28;20021;-86
2021/11/04 09:18:36;;;;;;;6.72;2.28;;;;;;;-146.90;100.00;60518.97;5028982;28;20034;-78
2021/11/04 09:21:02;;;;;;;4.15;1.13;;;;;;;-146.90;100.00;60518.97;5035468;28;20115;-82
2021/11/04 09:23:27;;;;;;;4.85;1.63;;;;;;;-146.90;100.00;60518.97;5030622;28;20583;-77
2021/11/04 09:25:53;;;;;;;6.68;1.50;;;;;;;-146.90;100.00;60518.97;5028858;28;20021;-78
2021/11/04 09:28:18;;;;;;;9.10;1.95;;;;;;;-146.90;100.00;60518.97;5029143;28;20057;-78
2021/11/04 09:30:43;;;;;;;5.88;1.38;;;;;;;-146.90;100.00;60518.97;5029332;28;20018;-77
2021/11/04 09:33:10;;;;;;;2.78;1.52;;;;;;;-146.90;100.00;60518.97;5028674;28;20030;-78
2021/11/04 09:35:36;;;;;;;5.45;1.20;;;;;;;-146.90;100.00;60518.97;5028280;28;20104;-78
2021/11/04 09:38:03;;;;;;;5.30;1.77;;;;;;;-146.90;100.00;60518.97;5027998;28;20432;-78
2021/11/04 09:40:29;;;;;;;2.72;1.05;;;;;;;-146.90;100.00;60518.97;5027692;28;20021;-78
2021/11/04 09:42:54;;;;;;;6.35;1.45;;;;;;;-146.90;100.00;60518.97;5027314;28;20075;-77
2021/11/04 09:45:20;;;;;;;6.07;1.10;;;;;;;-146.90;100.00;60518.97;5028062;28;20021;-78
2021/11/04 09:47:46;;;;;;;5.43;1.50;;;;;;;-146.90;100.00;60518.97;5028386;28;20079;-76
2021/11/04 09:50:15;;;;;;;10.23;2.08;;;;;;;-146.90;100.00;60518.97;5028351;28;20401;-77
2021/11/04 09:52:41;;;;;;;6.70;1.35;;;;;;;-146.90;100.00;60518.97;5037843;28;20029;-77
2021/11/04 09:55:17;;;;;;;9.95;1.60;;;;;;;-146.90;100.00;60518.97;5033126;28;20167;-77
2021/11/04 09:57:42;;;;;;;3.35;1.38;;;;;;;-146.90;100.00;60518.97;5034959;28;20025;-77
2021/11/04 10:00:08;;;;;;;4.68;1.38;;;;;;;-146.90;100.00;60518.97;5035066;28;20095;-76
2021/11/04 10:02:34;;;;;;;5.18;1.35;;;;;;;-146.90;100.00;60518.97;5028902;28;20462;-79
2021/11/04 10:05:07;;;;;;;8.23;1.90;;;;;;;-146.90;100.00;60518.97;5040500;28;20036;-78
2021/11/04 10:07:48;;;;;;;4.60;1.30;;;;;;;-146.90;100.00;60518.97;5029141;28;20042;-82
2021/11/04 10:10:19;;;;;;;5.22;1.30;;;;;;;-146.90;100.00;60518.97;5029279;28;20062;-81
2021/11/04 10:13:03;;;;;;;6.78;1.75;;;;;;;-146.90;100.00;60518.97;5029582;28;20478;-76
2021/11/04 10:15:30;;;;;;;11.98;5.40;;;;;;;-146.90;100.00;60518.97;5027810;28;20061;-77
2021/11/04 10:18:17;;;;;;;8.27;2.78;;;;;;;-146.90;100.00;60518.97;5027661;28;20032;-88
2021/11/04 10:21:03;;;;;;;7.93;2.30;;;;;;;-146.90;100.00;60518.97;5028769;28;20025;-80
2021/11/04 10:23:43;;;;;;;6.32;1.73;;;;;;;-146.90;100.00;60518.97;5019538;28;20386;-78
2021/11/04 10:26:24;;;;;;;6.10;2.10;;;;;;;-146.90;100.00;60518.97;5028028;28;20025;-78
2021/11/04 10:28:51;;;;;;;7.80;1.80;;;;;;;-146.90;100.00;60518.97;5027782;28;20022;-77
2021/11/04 10:31:20;;;;;;;7.80;1.98;;;;;;;-146.90;100.00;60518.97;5028528;28;20454;-77
2021/11/04 10:33:47;;;;;;;6.95;1.55;;;;;;;-146.90;100.00;60518.97;5028284;28;20026;-77
2021/11/04 10:36:24;;;;;;;5.13;1.80;;;;;;;-146.90;100.00;60518.97;5026675;28;20478;-76
2021/11/04 10:38:54;;;;;;;6.22;1.65;;;;;;;-146.90;100.00;60518.97;5015893;28;20033;-77
2021/11/04 10:41:40;;;;;;;8.68;1.73;;;;;;;-146.90;100.00;60518.97;5020417;28;20025;-83
2021/11/04 10:44:09;;;;;;;6.78;1.95;;;;;;;-146.90;100.00;60518.97;5010265;28;20378;-83
2021/11/04 10:46:44;;;;;;;12.50;1.70;;;;;;;-146.90;100.00;60518.97;5027295;28;20424;-76
2021/11/04 10:49:09;;;;;;;6.47;1.90;;;;;;;-146.90;100.00;60518.97;5027395;28;20025;-77
2021/11/04 10:51:35;;;;;;;13.07;1.70;;;;;;;-146.90;100.00;60518.97;5025211;28;20040;-77
2021/11/04 10:54:04;;;;;;;9.05;1.88;;;;;;;-146.90;100.00;60518.97;5030868;28;20080;-76
2021/11/04 10:56:32;;;;;;;5.70;1.95;;;;;;;-146.90;100.00;60518.97;5030697;28;20029;-81
2021/11/04 10:59:07;;;;;;;5.43;1.77;;;;;;;-146.90;100.00;60518.97;5030246;28;20053;-82
2021/11/04 11:01:36;;;;;;;6.90;1.63;;;;;;;-146.90;100.00;60518.97;5034403;28;20059;-84
2021/11/04 11:04:08;;;;;;;8.23;1.60;;;;;;;-146.90;100.00;60518.97;5028198;28;20022;-84